Time;durP1;ratioP1;P1;durP2;ratioP2;P2;SDS_P1;SDS_P2;PMS_P1;PMS_P2;Temp;Humidity;BMP_temperature;BMP_pressure;BME280_temperature;BME280_humidity;BME280_pressure;Samples;Min_cycle;Max_cycle;Signal;HPM_P1;HPM_P2
2024/01/13 00:01:52;;;;;;;8.82;7.32;;;4.40;99.90;;;;;;5031611;28;20103;-83
2024/01/13 00:04:18;;;;;;;9.40;7.47;;;4.50;99.90;;;;;;5031214;28;20747;-82
2024/01/13 00:06:43;;;;;;;12.50;8.00;;;4.50;99.90;;;;;;5030953;28;20425;-82
2024/01/13 00:09:09;;;;;;;8.48;7.05;;;4.50;99.90;;;;;;5029927;28;20032;-81
2024/01/13 00:11:35;;;;;;;9.00;7.30;;;4.50;99.90;;;;;;5027420;28;20025;-81
2024/01/13 00:14:00;;;;;;;10.50;8.15;;;4.50;99.90;;;;;;5031504;28;20151;-81
2024/01/13 00:16:26;;;;;;;9.43;8.50;;;4.50;99.90;;;;;;5031256;28;20021;-81
2024/01/13 00:18:51;;;;;;;9.50;8.50;;;4.50;99.90;;;;;;5030027;28;20033;-80
2024/01/13 00:21:17;;;;;;;11.02;7.47;;;4.50;99.90;;;;;;5028544;28;20057;-81
2024/01/13 00:23:43;;;;;;;9.82;7.95;;;4.60;99.90;;;;;;5030259;28;20068;-82
2024/01/13 00:26:09;;;;;;;13.02;7.95;;;4.50;99.90;;;;;;5030201;28;20104;-81
2024/01/13 00:28:34;;;;;;;11.80;8.65;;;4.50;99.90;;;;;;5031579;28;20112;-80
2024/01/13 00:31:00;;;;;;;12.00;8.35;;;4.50;99.90;;;;;;5031871;28;20106;-80
2024/01/13 00:33:25;;;;;;;12.70;9.57;;;4.50;99.90;;;;;;5029215;28;20470;-81
2024/01/13 00:35:51;;;;;;;11.82;8.35;;;4.50;99.90;;;;;;5031208;28;20559;-81
2024/01/13 00:38:17;;;;;;;12.25;9.13;;;5.50;99.90;;;;;;5031546;28;20500;-81
2024/01/13 00:40:42;;;;;;;9.95;8.63;;;4.50;99.90;;;;;;5027862;28;20040;-81
2024/01/13 00:43:09;;;;;;;14.10;8.45;;;4.50;99.90;;;;;;5025410;28;20025;-81
2024/01/13 00:45:34;;;;;;;11.40;8.63;;;4.50;99.90;;;;;;5031302;28;20064;-81
2024/01/13 00:48:00;;;;;;;10.75;8.88;;;4.50;99.90;;;;;;5030187;28;20513;-80
2024/01/13 00:50:26;;;;;;;11.68;8.40;;;4.50;99.90;;;;;;5030461;28;20079;-81
2024/01/13 00:52:52;;;;;;;9.77;8.77;;;4.50;99.90;;;;;;5031314;28;20037;-80
2024/01/13 00:55:17;;;;;;;8.50;7.63;;;4.50;99.90;;;;;;5030210;28;20056;-81
2024/01/13 00:57:43;;;;;;;11.70;8.18;;;4.50;99.90;;;;;;5030122;28;20017;-81
2024/01/13 01:00:10;;;;;;;9.77;8.80;;;4.50;99.90;;;;;;5030159;28;20088;-81
2024/01/13 01:02:36;;;;;;;10.75;8.13;;;4.50;99.90;;;;;;5023939;28;20029;-81
2024/01/13 01:05:01;;;;;;;11.43;8.70;;;4.50;99.90;;;;;;5031043;28;20095;-81
2024/01/13 01:07:27;;;;;;;15.68;8.77;;;4.60;99.90;;;;;;5029692;28;20022;-81
2024/01/13 01:09:52;;;;;;;10.52;9.43;;;4.50;99.90;;;;;;5030008;28;20033;-81
2024/01/13 01:12:18;;;;;;;10.13;9.05;;;4.50;99.90;;;;;;5031156;28;20026;-81
2024/01/13 01:14:43;;;;;;;12.07;10.55;;;4.50;99.90;;;;;;5029840;28;20176;-81
2024/01/13 01:17:09;;;;;;;13.55;10.40;;;4.50;99.90;;;;;;5030619;28;20405;-81
2024/01/13 01:19:34;;;;;;;16.38;11.40;;;4.50;99.90;;;;;;5029152;28;20068;-81
2024/01/13 01:22:00;;;;;;;16.38;11.80;;;4.50;99.90;;;;;;5029604;28;20037;-82
2024/01/13 01:24:25;;;;;;;15.65;12.40;;;4.90;99.90;;;;;;5025732;28;20528;-82
2024/01/13 01:26:51;;;;;;;15.35;11.40;;;4.40;99.90;;;;;;5032187;28;20030;-81
2024/01/13 01:29:17;;;;;;;16.05;12.48;;;4.40;99.90;;;;;;5031994;28;20021;-82
2024/01/13 01:31:42;;;;;;;16.70;13.05;;;4.40;99.90;;;;;;5032815;28;20040;-81
2024/01/13 01:34:08;;;;;;;15.35;12.43;;;4.30;99.90;;;;;;5033070;28;20028;-82
2024/01/13 01:36:33;;;;;;;18.25;14.18;;;4.30;99.90;;;;;;5031886;28;20109;-81
2024/01/13 01:38:59;;;;;;;18.15;14.27;;;4.30;99.90;;;;;;5032867;28;20064;-81
2024/01/13 01:41:25;;;;;;;16.92;14.15;;;4.30;99.90;;;;;;5027168;28;20034;-81
2024/01/13 01:43:51;;;;;;;16.35;14.48;;;4.30;99.90;;;;;;5024903;28;20526;-81
2024/01/13 01:46:19;;;;;;;19.08;13.50;;;4.30;99.90;;;;;;5026184;28;20497;-81
2024/01/13 01:48:45;;;;;;;18.38;14.65;;;4.30;99.90;;;;;;5026444;28;20053;-81
2024/01/13 01:51:13;;;;;;;17.83;13.25;;;4.30;99.90;;;;;;5028379;28;20049;-81
2024/01/13 01:53:40;;;;;;;17.02;13.45;;;4.30;99.90;;;;;;5028939;28;20029;-81
2024/01/13 01:56:11;;;;;;;14.73;12.57;;;4.30;99.90;;;;;;5029476;28;20041;-81
2024/01/13 01:58:39;;;;;;;14.95;11.80;;;4.40;99.90;;;;;;5028359;28;20082;-80
2024/01/13 02:01:07;;;;;;;15.85;12.75;;;4.30;99.90;;;;;;5029893;28;20037;-81
2024/01/13 02:03:34;;;;;;;16.88;12.75;;;4.20;99.90;;;;;;5024848;28;20024;-80
2024/01/13 02:06:02;;;;;;;14.20;12.73;;;4.20;99.90;;;;;;5029677;28;20485;-82
2024/01/13 02:08:28;;;;;;;13.00;11.68;;;4.20;99.90;;;;;;5024794;28;20120;-81
2024/01/13 02:10:54;;;;;;;13.88;11.60;;;4.30;99.90;;;;;;5019446;28;20022;-81
2024/01/13 02:13:19;;;;;;;13.48;11.00;;;4.30;99.90;;;;;;5023263;28;20084;-81
2024/01/13 02:15:45;;;;;;;12.68;9.95;;;4.30;99.90;;;;;;5028495;28;20069;-81
2024/01/13 02:18:10;;;;;;;11.48;10.27;;;4.30;99.90;;;;;;5028945;28;20041;-81
2024/01/13 02:20:36;;;;;;;11.05;9.80;;;4.30;99.90;;;;;;5028354;28;20030;-81
2024/01/13 02:23:01;;;;;;;13.73;9.90;;;4.40;99.90;;;;;;5029593;28;20025;-81
2024/01/13 02:25:27;;;;;;;11.45;9.07;;;4.40;99.90;;;;;;5029353;28;20112;-82
2024/01/13 02:27:52;;;;;;;9.40;8.10;;;4.40;99.90;;;;;;5029232;28;20061;-81
2024/01/13 02:30:18;;;;;;;9.80;8.27;;;4.40;99.90;;;;;;5024599;28;20025;-81
2024/01/13 02:32:43;;;;;;;8.75;7.85;;;4.40;99.90;;;;;;5028249;28;20144;-81
2024/01/13 02:35:09;;;;;;;9.25;7.82;;;4.40;99.90;;;;;;5029344;28;20083;-81
2024/01/13 02:37:35;;;;;;;7.30;6.60;;;4.40;99.90;;;;;;5028208;28;20036;-81
2024/01/13 02:40:00;;;;;;;10.15;7.72;;;4.40;99.90;;;;;;5028569;28;20037;-81
2024/01/13 02:42:26;;;;;;;8.35;7.53;;;4.50;99.90;;;;;;5023764;28;20026;-81
2024/01/13 02:44:51;;;;;;;7.63;6.93;;;4.50;99.90;;;;;;5031666;28;20084;-81
2024/01/13 02:47:20;;;;;;;8.23;7.43;;;4.50;99.90;;;;;;5030893;28;20028;-80
2024/01/13 02:49:45;;;;;;;8.13;7.22;;;4.50;99.90;;;;;;5031259;28;20028;-81
2024/01/13 02:52:11;;;;;;;8.43;7.63;;;4.40;99.90;;;;;;5026605;28;20053;-80
2024/01/13 02:54:36;;;;;;;8.80;8.00;;;4.40;99.90;;;;;;5028981;28;20076;-82
2024/01/13 02:57:02;;;;;;;10.18;8.98;;;4.40;99.90;;;;;;5028145;28;20029;-82
2024/01/13 02:59:28;;;;;;;8.90;7.80;;;4.40;99.90;;;;;;5028775;28;20037;-82
2024/01/13 03:01:53;;;;;;;9.23;8.25;;;4.50;99.90;;;;;;5027617;28;20059;-81
2024/01/13 03:04:19;;;;;;;11.82;8.18;;;4.50;99.90;;;;;;5028591;28;20029;-82
2024/01/13 03:06:44;;;;;;;9.88;7.85;;;4.60;99.90;;;;;;5028055;28;20424;-82
2024/01/13 03:09:11;;;;;;;10.43;8.10;;;4.50;99.90;;;;;;5028387;28;20113;-81
2024/01/13 03:11:37;;;;;;;10.18;7.78;;;4.50;99.90;;;;;;5028501;28;20034;-81
2024/01/13 03:14:03;;;;;;;8.77;7.35;;;4.50;99.90;;;;;;5026857;28;20044;-82
2024/01/13 03:16:28;;;;;;;8.02;7.00;;;4.50;99.90;;;;;;5023042;28;20469;-82
2024/01/13 03:18:54;;;;;;;7.53;6.70;;;4.50;99.90;;;;;;5029218;28;20026;-82
2024/01/13 03:21:19;;;;;;;7.90;7.20;;;4.50;99.90;;;;;;5027516;28;20064;-81
2024/01/13 03:23:45;;;;;;;7.75;7.05;;;4.50;99.90;;;;;;5028409;28;20037;-81
2024/01/13 03:26:11;;;;;;;7.63;6.93;;;4.50;99.90;;;;;;5023430;28;20124;-82
2024/01/13 03:28:37;;;;;;;9.45;6.20;;;4.50;99.90;;;;;;5027682;28;20141;-82
2024/01/13 03:31:03;;;;;;;11.90;6.70;;;4.50;99.90;;;;;;5028614;28;20042;-82
2024/01/13 03:33:29;;;;;;;7.32;6.30;;;4.50;99.90;;;;;;5028577;28;20045;-81
2024/01/13 03:35:55;;;;;;;8.02;6.43;;;4.50;99.90;;;;;;5019831;28;20088;-81
2024/01/13 03:38:20;;;;;;;10.10;6.35;;;4.50;99.90;;;;;;5020239;28;20056;-82
2024/01/13 03:40:46;;;;;;;7.20;6.57;;;4.40;99.90;;;;;;5028411;28;20060;-81
2024/01/13 03:43:11;;;;;;;7.15;5.75;;;4.50;99.90;;;;;;5020371;28;20032;-81
2024/01/13 03:45:37;;;;;;;7.22;6.50;;;4.90;99.90;;;;;;5029314;28;20246;-82
2024/01/13 03:48:02;;;;;;;7.03;6.05;;;4.50;99.90;;;;;;5028197;28;20029;-82
2024/01/13 03:50:28;;;;;;;6.85;6.03;;;4.40;99.90;;;;;;5028253;28;20426;-81
2024/01/13 03:52:54;;;;;;;7.32;6.55;;;4.50;99.90;;;;;;5028932;28;20052;-81
2024/01/13 03:55:19;;;;;;;7.05;6.22;;;4.40;99.90;;;;;;5027707;28;20396;-81
2024/01/13 03:57:45;;;;;;;7.07;6.40;;;4.40;99.90;;;;;;5020972;28;20039;-81
2024/01/13 04:00:11;;;;;;;6.30;5.70;;;4.40;99.90;;;;;;5029768;28;20033;-80
2024/01/13 04:02:36;;;;;;;7.68;5.80;;;4.40;99.90;;;;;;5029591;28;20029;-81
2024/01/13 04:05:02;;;;;;;8.80;6.65;;;4.30;99.90;;;;;;5031133;28;20040;-81
2024/01/13 04:07:27;;;;;;;6.95;6.25;;;4.30;99.90;;;;;;5031699;28;20033;-81
2024/01/13 04:09:53;;;;;;;9.00;6.75;;;4.30;99.90;;;;;;5031062;28;20435;-80
2024/01/13 04:12:19;;;;;;;7.80;6.93;;;4.10;99.90;;;;;;5030709;28;20040;-81
2024/01/13 04:14:44;;;;;;;8.20;6.00;;;4.40;99.90;;;;;;5031001;28;20037;-81
2024/01/13 04:17:10;;;;;;;7.05;6.28;;;4.40;99.90;;;;;;5030449;28;20547;-81
2024/01/13 04:19:36;;;;;;;7.20;6.00;;;4.40;99.90;;;;;;5028483;28;20027;-82
2024/01/13 04:22:01;;;;;;;6.60;5.78;;;4.40;99.90;;;;;;5030590;28;20091;-81
2024/01/13 04:24:27;;;;;;;9.77;6.95;;;4.40;99.90;;;;;;5030837;28;20021;-81
2024/01/13 04:26:52;;;;;;;7.55;6.30;;;4.40;99.90;;;;;;5031407;28;20555;-81
2024/01/13 04:29:18;;;;;;;7.72;5.95;;;4.40;99.90;;;;;;5031449;28;20029;-81
2024/01/13 04:31:44;;;;;;;12.23;6.57;;;4.40;99.90;;;;;;5029118;28;20537;-81
2024/01/13 04:34:09;;;;;;;6.43;5.80;;;4.50;99.90;;;;;;5031510;28;20072;-80
2024/01/13 04:36:35;;;;;;;9.65;7.00;;;4.50;99.90;;;;;;5031633;28;20041;-81
2024/01/13 04:39:01;;;;;;;8.77;6.60;;;4.50;99.90;;;;;;5027326;28;20409;-81
2024/01/13 04:41:26;;;;;;;7.50;6.75;;;4.50;99.90;;;;;;5039292;28;20025;-80
2024/01/13 04:43:52;;;;;;;9.40;7.80;;;4.50;99.90;;;;;;5039238;28;20607;-80
2024/01/13 04:46:17;;;;;;;10.95;8.43;;;4.50;99.90;;;;;;5042815;28;20849;-81
2024/01/13 04:48:43;;;;;;;10.07;8.65;;;4.50;99.90;;;;;;5038214;28;20485;-81
2024/01/13 04:51:08;;;;;;;11.75;8.90;;;4.50;99.90;;;;;;5036878;28;20057;-81
2024/01/13 04:53:34;;;;;;;8.43;7.28;;;4.50;99.90;;;;;;5037715;28;20031;-82
2024/01/13 04:56:00;;;;;;;8.98;7.57;;;4.40;99.90;;;;;;5037380;28;20080;-82
2024/01/13 04:58:25;;;;;;;9.88;7.95;;;4.50;99.90;;;;;;5035935;28;20036;-81
2024/01/13 05:00:51;;;;;;;9.73;8.45;;;4.50;99.90;;;;;;5030313;28;20034;-81
2024/01/13 05:03:16;;;;;;;11.40;7.70;;;4.50;99.90;;;;;;5028806;28;20303;-81
2024/01/13 05:05:42;;;;;;;10.93;8.13;;;4.40;99.90;;;;;;5041138;28;20386;-80
2024/01/13 05:08:08;;;;;;;10.88;7.53;;;4.40;99.90;;;;;;5036222;28;20029;-81
2024/01/13 05:10:34;;;;;;;11.60;8.13;;;4.40;99.90;;;;;;5041335;28;20498;-80
2024/01/13 05:12:59;;;;;;;10.63;6.93;;;4.40;99.90;;;;;;5038470;28;20040;-80
2024/01/13 05:15:25;;;;;;;10.10;7.63;;;4.40;99.90;;;;;;5034968;28;20034;-81
2024/01/13 05:17:51;;;;;;;10.32;7.65;;;4.40;99.90;;;;;;5037645;28;20070;-80
2024/01/13 05:20:17;;;;;;;10.15;7.63;;;4.40;99.90;;;;;;5040043;28;20056;-81
2024/01/13 05:22:42;;;;;;;11.00;7.60;;;4.30;99.90;;;;;;5031577;28;20473;-81
2024/01/13 05:25:08;;;;;;;11.10;7.25;;;4.30;99.90;;;;;;5039082;28;20469;-81
2024/01/13 05:27:34;;;;;;;10.25;7.53;;;4.40;99.90;;;;;;5040755;28;20028;-82
2024/01/13 05:29:59;;;;;;;12.07;7.63;;;4.40;99.90;;;;;;5038338;28;20021;-81
2024/01/13 05:32:25;;;;;;;10.73;6.97;;;4.30;99.90;;;;;;5035708;28;20025;-81
2024/01/13 05:34:50;;;;;;;10.65;7.28;;;4.30;99.90;;;;;;5036912;28;20045;-81
2024/01/13 05:37:16;;;;;;;10.93;7.47;;;4.30;99.90;;;;;;5035876;28;20032;-81
2024/01/13 05:39:41;;;;;;;11.45;7.88;;;4.30;99.90;;;;;;5040236;28;20036;-81
2024/01/13 05:42:08;;;;;;;11.25;7.68;;;4.30;99.90;;;;;;5037099;28;20382;-81
2024/01/13 05:44:34;;;;;;;10.73;7.78;;;4.30;99.90;;;;;;5025434;28;20443;-81
2024/01/13 05:47:00;;;;;;;11.32;7.80;;;4.30;99.90;;;;;;5037249;28;20116;-81
2024/01/13 05:49:26;;;;;;;9.82;6.55;;;4.40;99.90;;;;;;5035102;28;20127;-81
2024/01/13 05:51:51;;;;;;;12.75;8.70;;;4.40;99.90;;;;;;5035977;28;20501;-80
2024/01/13 05:54:17;;;;;;;11.43;7.78;;;4.40;99.90;;;;;;5036857;28;20036;-80
2024/01/13 05:56:43;;;;;;;10.55;8.05;;;4.40;99.90;;;;;;5035150;28;20499;-80
2024/01/13 05:59:08;;;;;;;14.30;8.88;;;4.50;99.90;;;;;;5036553;28;20025;-80
2024/01/13 06:01:34;;;;;;;13.20;8.75;;;4.50;99.90;;;;;;5041812;28;20031;-80
2024/01/13 06:03:59;;;;;;;9.90;8.27;;;4.50;99.90;;;;;;5035800;28;20047;-80
2024/01/13 06:06:25;;;;;;;9.73;7.82;;;4.50;99.90;;;;;;5030279;28;20120;-80
2024/01/13 06:08:50;;;;;;;10.68;8.13;;;4.50;99.90;;;;;;5039022;28;20087;-80
2024/01/13 06:11:16;;;;;;;12.35;8.15;;;4.60;99.90;;;;;;5035875;28;20025;-80
2024/01/13 06:13:41;;;;;;;11.00;8.18;;;4.60;99.90;;;;;;5036458;28;20021;-80
2024/01/13 06:16:08;;;;;;;11.88;8.70;;;4.60;99.90;;;;;;5035892;28;20043;-80
2024/01/13 06:18:33;;;;;;;12.32;8.85;;;4.60;99.90;;;;;;5034671;28;20060;-80
2024/01/13 06:21:00;;;;;;;9.52;7.75;;;4.60;99.90;;;;;;5035132;28;20057;-80
2024/01/13 06:23:26;;;;;;;8.45;6.82;;;4.60;99.90;;;;;;5036211;28;20381;-80
2024/01/13 06:25:51;;;;;;;7.45;6.13;;;4.50;99.90;;;;;;5025685;28;20376;-80
2024/01/13 06:28:17;;;;;;;10.13;7.57;;;4.50;99.90;;;;;;5034085;28;20041;-80
2024/01/13 06:30:43;;;;;;;11.68;7.45;;;4.50;99.90;;;;;;5034179;28;20053;-80
2024/01/13 06:33:08;;;;;;;6.95;6.25;;;4.50;99.90;;;;;;5037795;28;20029;-80
2024/01/13 06:35:34;;;;;;;8.23;7.28;;;4.60;99.90;;;;;;5037577;28;20049;-80
2024/01/13 06:38:00;;;;;;;8.95;7.90;;;4.50;99.90;;;;;;5034649;28;20024;-80
2024/01/13 06:40:25;;;;;;;9.35;7.22;;;4.50;99.90;;;;;;5035278;28;20038;-80
2024/01/13 06:42:51;;;;;;;9.88;8.05;;;4.60;99.90;;;;;;5035270;28;20040;-81
2024/01/13 06:45:16;;;;;;;11.65;8.25;;;4.50;99.90;;;;;;5035176;28;20507;-81
2024/01/13 06:47:42;;;;;;;10.80;8.60;;;4.60;99.90;;;;;;5028422;28;20025;-81
2024/01/13 06:50:08;;;;;;;8.13;7.13;;;4.60;99.90;;;;;;5038340;28;20024;-79
2024/01/13 06:52:33;;;;;;;7.68;6.88;;;4.60;99.90;;;;;;5036677;28;20120;-80
2024/01/13 06:55:00;;;;;;;7.07;5.95;;;4.60;99.90;;;;;;5043093;28;20544;-80
2024/01/13 06:57:25;;;;;;;8.18;5.60;;;4.60;99.90;;;;;;5039722;28;20022;-80
2024/01/13 06:59:51;;;;;;;8.20;5.60;;;4.50;99.90;;;;;;5036151;28;20033;-80
2024/01/13 07:02:16;;;;;;;6.30;5.40;;;4.50;99.90;;;;;;5030470;28;20496;-82
2024/01/13 07:04:45;;;;;;;4.75;4.25;;;4.50;99.90;;;;;;5042369;28;20036;-82
2024/01/13 07:07:10;;;;;;;7.15;4.88;;;4.60;99.90;;;;;;5039952;28;20393;-80
2024/01/13 07:09:36;;;;;;;4.97;4.47;;;4.50;99.90;;;;;;5034079;28;20037;-82
2024/01/13 07:12:02;;;;;;;4.70;3.83;;;4.60;99.90;;;;;;5030633;28;20032;-83
2024/01/13 07:14:29;;;;;;;4.78;4.25;;;4.50;99.90;;;;;;5027991;28;20409;-83
2024/01/13 07:16:55;;;;;;;4.03;3.70;;;4.50;99.90;;;;;;5038369;28;20135;-83
2024/01/13 07:19:20;;;;;;;5.32;4.45;;;4.50;99.90;;;;;;5035041;28;20119;-82
2024/01/13 07:21:46;;;;;;;4.22;3.83;;;4.50;99.90;;;;;;5033866;28;20034;-82
2024/01/13 07:24:12;;;;;;;4.07;3.67;;;4.60;99.90;;;;;;5033779;28;20545;-81
2024/01/13 07:26:41;;;;;;;4.35;3.97;;;4.60;99.90;;;;;;5040914;28;20112;-81
2024/01/13 07:29:07;;;;;;;4.93;3.80;;;4.60;99.90;;;;;;5036729;28;20021;-81
2024/01/13 07:31:33;;;;;;;6.57;4.10;;;5.40;99.90;;;;;;5034978;28;20378;-83
2024/01/13 07:33:59;;;;;;;5.07;4.43;;;4.50;99.90;;;;;;5028632;28;20084;-82
2024/01/13 07:36:24;;;;;;;4.72;4.25;;;4.60;99.90;;;;;;5039860;28;20059;-82
2024/01/13 07:38:50;;;;;;;6.93;5.53;;;4.50;99.90;;;;;;5025388;28;20033;-82
2024/01/13 07:41:16;;;;;;;6.60;5.97;;;4.60;99.90;;;;;;5030411;28;20025;-83
2024/01/13 07:43:44;;;;;;;7.07;6.03;;;4.60;99.90;;;;;;5031185;28;20556;-82
2024/01/13 07:46:12;;;;;;;9.48;6.53;;;4.60;99.90;;;;;;5033975;28;20034;-82
2024/01/13 07:48:38;;;;;;;6.70;6.10;;;4.60;99.90;;;;;;5034859;28;20074;-82
2024/01/13 07:51:04;;;;;;;7.28;6.57;;;4.60;99.90;;;;;;5037173;28;20049;-83
2024/01/13 07:53:29;;;;;;;7.18;6.43;;;4.60;99.90;;;;;;5034799;28;20044;-82
2024/01/13 07:55:55;;;;;;;8.43;7.05;;;4.60;99.90;;;;;;5034915;28;20086;-82
2024/01/13 07:58:20;;;;;;;8.02;7.32;;;4.60;99.90;;;;;;5040074;28;20477;-82
2024/01/13 08:00:46;;;;;;;8.63;7.28;;;4.60;99.90;;;;;;5036271;28;20029;-83
2024/01/13 08:03:11;;;;;;;8.40;7.60;;;4.60;99.90;;;;;;5031898;28;20071;-82
2024/01/13 08:05:37;;;;;;;8.40;7.70;;;4.60;99.90;;;;;;5033897;28;20044;-82
2024/01/13 08:08:06;;;;;;;8.63;7.82;;;4.60;99.90;;;;;;5039122;28;20082;-82
2024/01/13 08:10:32;;;;;;;10.13;8.32;;;4.60;99.90;;;;;;5037023;28;20021;-83
2024/01/13 08:13:00;;;;;;;9.70;8.70;;;4.60;99.90;;;;;;5034735;28;20543;-82
2024/01/13 08:15:26;;;;;;;10.70;9.70;;;4.60;99.90;;;;;;5039731;28;20046;-82
2024/01/13 08:17:51;;;;;;;12.52;10.68;;;4.50;99.90;;;;;;5041464;28;20473;-82
2024/01/13 08:20:18;;;;;;;15.45;11.15;;;4.60;99.90;;;;;;5045892;28;20156;-82
2024/01/13 08:22:46;;;;;;;11.60;10.32;;;4.50;99.90;;;;;;5029366;28;20065;-83
2024/01/13 08:25:12;;;;;;;12.20;10.85;;;4.50;99.90;;;;;;5024295;28;20018;-81
2024/01/13 08:27:37;;;;;;;15.35;10.63;;;4.50;99.90;;;;;;5041248;28;20036;-79
2024/01/13 08:30:04;;;;;;;10.95;9.85;;;4.50;99.90;;;;;;5038475;28;20432;-79
2024/01/13 08:32:30;;;;;;;10.82;9.70;;;4.50;99.90;;;;;;5036621;28;20476;-78
2024/01/13 08:34:55;;;;;;;11.15;9.98;;;4.60;99.90;;;;;;5035600;28;20041;-80
2024/01/13 08:37:21;;;;;;;10.93;9.70;;;4.60;99.90;;;;;;5041302;28;20457;-79
2024/01/13 08:39:46;;;;;;;11.25;10.07;;;4.50;99.90;;;;;;5042306;28;20029;-79
2024/01/13 08:42:12;;;;;;;12.77;11.35;;;4.50;99.90;;;;;;5032188;28;20044;-79
2024/01/13 08:44:38;;;;;;;15.02;11.05;;;4.50;99.90;;;;;;5023955;28;20029;-80
2024/01/13 08:47:03;;;;;;;13.68;11.82;;;4.60;99.90;;;;;;5028548;28;20034;-80
2024/01/13 08:49:29;;;;;;;16.27;10.55;;;4.50;99.90;;;;;;5030893;28;20056;-80
2024/01/13 08:51:55;;;;;;;11.55;10.35;;;4.50;99.90;;;;;;5031969;28;20183;-80
2024/01/13 08:54:23;;;;;;;12.38;11.07;;;4.50;99.90;;;;;;5030719;28;20506;-79
2024/01/13 08:56:49;;;;;;;16.50;10.77;;;4.50;99.90;;;;;;5031423;28;20029;-80
2024/01/13 08:59:15;;;;;;;13.75;10.15;;;4.60;99.90;;;;;;5022680;28;20041;-80
2024/01/13 09:01:41;;;;;;;11.63;9.05;;;4.50;99.90;;;;;;5019174;28;20029;-80
2024/01/13 09:04:10;;;;;;;15.15;9.48;;;4.50;99.90;;;;;;5011088;28;20378;-83
2024/01/13 09:06:36;;;;;;;10.25;9.18;;;4.50;99.90;;;;;;5010051;28;20029;-81
2024/01/13 09:09:04;;;;;;;12.18;9.18;;;4.50;99.90;;;;;;5013595;28;20382;-79
2024/01/13 09:11:30;;;;;;;9.73;8.35;;;4.50;99.90;;;;;;5011074;28;20026;-80
2024/01/13 09:13:55;;;;;;;14.75;7.93;;;4.50;99.90;;;;;;5011825;28;20034;-80
2024/01/13 09:16:21;;;;;;;12.57;8.75;;;4.50;99.90;;;;;;5010719;28;20110;-80
2024/01/13 09:18:46;;;;;;;9.07;8.18;;;4.50;99.90;;;;;;5014365;28;20057;-81
2024/01/13 09:21:12;;;;;;;10.10;8.52;;;4.50;99.90;;;;;;5032617;28;20025;-80
2024/01/13 09:23:40;;;;;;;12.77;8.20;;;5.40;99.90;;;;;;5031531;28;20022;-80
2024/01/13 09:26:05;;;;;;;9.85;8.07;;;4.50;99.90;;;;;;5041651;28;20109;-81
2024/01/13 09:28:32;;;;;;;10.48;8.80;;;4.50;99.90;;;;;;5040478;28;20112;-83
2024/01/13 09:30:58;;;;;;;9.05;8.15;;;4.50;99.90;;;;;;5021538;28;20041;-81
2024/01/13 09:33:24;;;;;;;10.98;8.52;;;4.50;99.90;;;;;;5010175;28;20026;-81
2024/01/13 09:35:50;;;;;;;8.85;7.95;;;4.50;99.90;;;;;;5009121;28;20042;-81
2024/01/13 09:38:15;;;;;;;9.60;7.60;;;4.50;99.90;;;;;;5010692;28;20040;-81
2024/01/13 09:40:41;;;;;;;9.55;8.00;;;4.50;99.90;;;;;;5007246;28;20021;-81
2024/01/13 09:43:38;;;;;;;12.65;8.73;;;4.50;99.90;;;;;;5008650;28;20021;-82
2024/01/13 09:46:03;;;;;;;10.05;8.10;;;4.50;99.90;;;;;;5008839;28;20030;-82
2024/01/13 09:48:29;;;;;;;10.43;9.07;;;4.50;99.90;;;;;;5012541;28;20041;-82
2024/01/13 09:50:58;;;;;;;11.45;9.15;;;4.50;99.90;;;;;;5006985;28;20038;-82
2024/01/13 09:53:28;;;;;;;12.13;9.50;;;4.50;99.90;;;;;;5006285;28;20433;-81
2024/01/13 09:56:08;;;;;;;16.20;10.60;;;4.50;99.90;;;;;;5011243;28;20073;-81
2024/01/13 09:58:33;;;;;;;15.63;9.60;;;4.50;99.90;;;;;;5007436;28;20042;-81
2024/01/13 10:01:00;;;;;;;17.73;12.30;;;4.50;99.90;;;;;;5016893;28;20029;-81
2024/01/13 10:03:26;;;;;;;18.10;13.13;;;4.50;99.90;;;;;;5014486;28;20437;-81
2024/01/13 10:05:52;;;;;;;19.27;12.75;;;4.60;99.90;;;;;;5012274;28;20053;-81
2024/01/13 10:08:32;;;;;;;20.55;14.93;;;4.50;99.90;;;;;;5012814;28;20148;-80
2024/01/13 10:10:59;;;;;;;27.13;17.85;;;4.50;99.90;;;;;;5016406;28;20037;-82
2024/01/13 10:13:25;;;;;;;27.70;18.63;;;4.50;99.90;;;;;;5012279;28;20053;-84
2024/01/13 10:15:51;;;;;;;28.33;18.08;;;4.50;99.90;;;;;;5024357;28;20045;-85
2024/01/13 10:18:18;;;;;;;33.95;20.15;;;4.40;99.90;;;;;;5032104;28;20033;-85
2024/01/13 10:20:44;;;;;;;30.95;19.30;;;4.40;99.90;;;;;;5022856;28;20071;-84
2024/01/13 10:23:11;;;;;;;28.83;18.63;;;4.40;99.90;;;;;;5010340;28;20421;-86
2024/01/13 10:25:36;;;;;;;32.88;19.50;;;4.40;99.90;;;;;;5019076;28;20029;-82
2024/01/13 10:28:03;;;;;;;29.55;19.48;;;4.40;99.90;;;;;;5030666;28;20117;-80
2024/01/13 10:30:29;;;;;;;30.50;18.63;;;4.40;99.90;;;;;;5021306;28;20497;-81
2024/01/13 10:32:55;;;;;;;32.13;19.83;;;4.40;99.90;;;;;;5011548;28;20033;-82
2024/01/13 10:35:21;;;;;;;28.00;18.23;;;4.30;99.90;;;;;;5012322;28;20490;-82
2024/01/13 10:37:46;;;;;;;28.40;19.23;;;4.40;99.90;;;;;;5010245;28;20061;-83
2024/01/13 10:40:12;;;;;;;31.92;19.50;;;4.40;99.90;;;;;;5023381;28;20036;-81
2024/01/13 10:42:38;;;;;;;30.30;17.80;;;4.40;99.90;;;;;;5029332;28;20028;-81
2024/01/13 10:45:09;;;;;;;30.20;19.55;;;4.30;99.90;;;;;;5026231;28;20026;-82
2024/01/13 10:47:40;;;;;;;30.00;20.25;;;4.30;99.90;;;;;;5028287;28;20052;-86
2024/01/13 10:50:06;;;;;;;36.03;19.98;;;4.30;99.90;;;;;;5025459;28;20136;-86
2024/01/13 10:52:53;;;;;;;32.55;21.80;;;4.30;99.90;;;;;;5017262;28;20506;-85
2024/01/13 10:55:19;;;;;;;36.22;21.42;;;4.30;99.90;;;;;;5010410;28;20045;-85
2024/01/13 10:57:47;;;;;;;30.85;21.40;;;4.30;99.90;;;;;;5012722;28;20033;-82
2024/01/13 11:00:13;;;;;;;31.90;21.02;;;4.30;99.90;;;;;;5027452;28;20482;-81
2024/01/13 11:02:41;;;;;;;34.60;22.98;;;4.30;99.90;;;;;;5025344;28;20578;-82
2024/01/13 11:05:08;;;;;;;37.47;22.67;;;4.30;99.90;;;;;;5013817;28;20032;-81
2024/01/13 11:07:34;;;;;;;39.30;23.75;;;4.20;99.90;;;;;;5008489;28;20028;-81
2024/01/13 11:10:04;;;;;;;39.22;25.95;;;4.30;99.90;;;;;;5025658;28;20028;-81
2024/01/13 11:12:51;;;;;;;38.30;24.45;;;4.30;99.90;;;;;;5014433;28;20172;-82
2024/01/13 11:15:24;;;;;;;44.40;24.70;;;4.30;99.90;;;;;;5034834;28;20090;-80
2024/01/13 11:17:50;;;;;;;41.65;26.55;;;4.30;99.90;;;;;;5031055;28;20485;-82
2024/01/13 11:20:20;;;;;;;41.35;25.65;;;4.30;99.90;;;;;;5032289;28;20029;-81
2024/01/13 11:22:57;;;;;;;38.50;24.25;;;4.30;99.90;;;;;;5025666;28;20030;-81
2024/01/13 11:25:27;;;;;;;39.65;23.92;;;4.60;99.90;;;;;;5014872;28;20187;-81
2024/01/13 11:28:01;;;;;;;39.40;24.42;;;4.30;99.90;;;;;;5020626;28;20084;-81
2024/01/13 11:30:31;;;;;;;37.80;23.73;;;4.40;99.90;;;;;;5027355;28;20034;-82
2024/01/13 11:32:56;;;;;;;39.15;23.83;;;4.40;99.90;;;;;;5025953;28;20078;-81
2024/01/13 11:35:22;;;;;;;42.03;24.67;;;4.40;99.90;;;;;;5011986;28;20038;-81
2024/01/13 11:37:54;;;;;;;38.40;25.77;;;4.40;99.90;;;;;;5017482;28;20029;-80
2024/01/13 11:40:20;;;;;;;41.70;25.60;;;4.40;99.90;;;;;;5019773;28;20038;-80
2024/01/13 11:42:46;;;;;;;38.20;24.80;;;4.40;99.90;;;;;;5012235;28;20025;-80
2024/01/13 11:45:13;;;;;;;42.85;27.17;;;4.40;99.90;;;;;;5016356;28;20116;-80
2024/01/13 11:47:38;;;;;;;53.63;28.85;;;4.40;99.90;;;;;;5033090;28;20109;-79
2024/01/13 11:50:47;;;;;;;47.20;27.25;;;4.40;99.90;;;;;;5024317;28;20026;-80
2024/01/13 11:53:35;;;;;;;51.00;28.42;;;4.50;99.90;;;;;;5014590;28;20029;-81
2024/01/13 11:56:04;;;;;;;50.42;27.02;;;4.40;99.90;;;;;;5014379;28;20037;-82
2024/01/13 11:58:30;;;;;;;46.83;27.30;;;4.40;99.90;;;;;;5013324;28;20030;-82
2024/01/13 12:00:56;;;;;;;48.05;26.60;;;4.30;99.90;;;;;;5014009;28;20159;-83
2024/01/13 12:03:22;;;;;;;52.28;27.70;;;4.30;99.90;;;;;;5016282;28;20140;-82
2024/01/13 12:05:48;;;;;;;48.88;27.63;;;4.30;99.90;;;;;;5012149;28;20481;-82
2024/01/13 12:08:14;;;;;;;50.15;28.38;;;4.30;99.90;;;;;;5012241;28;20405;-82
2024/01/13 12:10:43;;;;;;;45.78;27.23;;;4.30;99.90;;;;;;5013385;28;20032;-82
2024/01/13 12:13:19;;;;;;;53.15;26.20;;;4.30;99.90;;;;;;5015953;28;20144;-81
2024/01/13 12:15:46;;;;;;;51.28;27.10;;;4.30;99.90;;;;;;5022050;28;20056;-81
2024/01/13 12:18:25;;;;;;;43.80;25.33;;;4.30;99.90;;;;;;5016206;28;20101;-78
2024/01/13 12:21:00;;;;;;;39.17;23.15;;;4.30;99.90;;;;;;5012003;28;20030;-81
2024/01/13 12:23:26;;;;;;;48.72;26.08;;;4.40;99.90;;;;;;5012546;28;20068;-80
2024/01/13 12:25:52;;;;;;;50.40;26.95;;;4.40;99.90;;;;;;5016625;28;20506;-80
2024/01/13 12:28:19;;;;;;;47.85;25.42;;;4.40;99.90;;;;;;5032427;28;20018;-82
2024/01/13 12:30:45;;;;;;;49.70;25.95;;;4.30;99.90;;;;;;5033492;28;20432;-82
2024/01/13 12:33:14;;;;;;;48.60;27.48;;;4.30;99.90;;;;;;5034188;28;20434;-81
2024/01/13 12:35:39;;;;;;;47.47;26.40;;;4.40;99.90;;;;;;5030132;28;20025;-81
2024/01/13 12:38:06;;;;;;;53.95;26.67;;;4.40;99.90;;;;;;5030826;28;20072;-82
2024/01/13 12:40:33;;;;;;;50.85;26.65;;;4.30;99.90;;;;;;5019902;28;20060;-83
2024/01/13 12:43:01;;;;;;;48.78;26.80;;;4.30;99.90;;;;;;5031179;28;20065;-82
2024/01/13 12:45:27;;;;;;;50.10;27.45;;;4.30;99.90;;;;;;5028235;28;20362;-81